sensor_id;sensor_type;location;lat;lon;timestamp;temperature;humidity
35635;DHT22;21757;43.610;1.440;2022-12-18T00:01:36;6.50;99.90
35635;DHT22;21757;43.610;1.440;2022-12-18T00:04:04;6.50;99.90
35635;DHT22;21757;43.610;1.440;2022-12-18T00:06:30;6.60;99.90
35635;DHT22;21757;43.610;1.440;2022-12-18T00:08:57;6.50;99.90
35635;DHT22;21757;43.610;1.440;2022-12-18T00:11:26;6.50;99.90
35635;DHT22;21757;43.610;1.440;2022-12-18T00:13:54;6.50;99.90
35635;DHT22;21757;43.610;1.440;2022-12-18T00:16:22;6.60;99.90
35635;DHT22;21757;43.610;1.440;2022-12-18T00:18:50;6.60;99.90
35635;DHT22;21757;43.610;1.440;2022-12-18T00:21:16;6.70;99.90
35635;DHT22;21757;43.610;1.440;2022-12-18T00:23:43;6.70;99.90
35635;DHT22;21757;43.610;1.440;2022-12-18T00:26:15;6.80;99.90
35635;DHT22;21757;43.610;1.440;2022-12-18T00:28:42;6.80;99.90
35635;DHT22;21757;43.610;1.440;2022-12-18T00:31:10;6.80;99.90
35635;DHT22;21757;43.610;1.440;2022-12-18T00:33:37;6.80;99.90
35635;DHT22;21757;43.610;1.440;2022-12-18T00:36:03;6.70;99.90
35635;DHT22;21757;43.610;1.440;2022-12-18T00:38:29;6.70;99.90
35635;DHT22;21757;43.610;1.440;2022-12-18T00:40:55;6.60;99.90
35635;DHT22;21757;43.610;1.440;2022-12-18T00:43:21;6.50;99.90
35635;DHT22;21757;43.610;1.440;2022-12-18T00:45:47;6.50;99.90
35635;DHT22;21757;43.610;1.440;2022-12-18T00:48:12;6.50;99.90
35635;DHT22;21757;43.610;1.440;2022-12-18T00:50:38;6.50;99.90
35635;DHT22;21757;43.610;1.440;2022-12-18T00:53:04;6.40;99.90
35635;DHT22;21757;43.610;1.440;2022-12-18T00:55:29;6.40;99.90
35635;DHT22;21757;43.610;1.440;2022-12-18T00:57:55;6.30;99.90
35635;DHT22;21757;43.610;1.440;2022-12-18T01:00:21;6.30;99.90
35635;DHT22;21757;43.610;1.440;2022-12-18T01:02:47;6.30;99.90
35635;DHT22;21757;43.610;1.440;2022-12-18T01:05:13;6.30;99.90
35635;DHT22;21757;43.610;1.440;2022-12-18T01:07:39;6.30;99.90
35635;DHT22;21757;43.610;1.440;2022-12-18T01:10:06;6.40;99.90
35635;DHT22;21757;43.610;1.440;2022-12-18T01:12:33;6.40;99.90
35635;DHT22;21757;43.610;1.440;2022-12-18T01:14:58;6.50;99.90
35635;DHT22;21757;43.610;1.440;2022-12-18T01:17:24;6.50;99.90
35635;DHT22;21757;43.610;1.440;2022-12-18T01:19:50;6.50;99.90
35635;DHT22;21757;43.610;1.440;2022-12-18T01:22:16;6.40;99.90
35635;DHT22;21757;43.610;1.440;2022-12-18T01:24:41;6.30;99.90
35635;DHT22;21757;43.610;1.440;2022-12-18T01:27:07;6.30;99.90
35635;DHT22;21757;43.610;1.440;2022-12-18T01:29:33;6.30;99.90
35635;DHT22;21757;43.610;1.440;2022-12-18T01:31:58;6.20;99.90
35635;DHT22;21757;43.610;1.440;2022-12-18T01:34:24;6.20;99.90
35635;DHT22;21757;43.610;1.440;2022-12-18T01:36:50;6.00;99.90
35635;DHT22;21757;43.610;1.440;2022-12-18T01:39:18;5.90;99.90
35635;DHT22;21757;43.610;1.440;2022-12-18T01:41:44;5.90;99.90
35635;DHT22;21757;43.610;1.440;2022-12-18T01:47:41;5.80;99.90
35635;DHT22;21757;43.610;1.440;2022-12-18T01:50:23;5.70;99.90
35635;DHT22;21757;43.610;1.440;2022-12-18T01:52:56;5.60;99.90
35635;DHT22;21757;43.610;1.440;2022-12-18T01:55:25;5.60;99.90
35635;DHT22;21757;43.610;1.440;2022-12-18T01:57:54;5.60;99.90
35635;DHT22;21757;43.610;1.440;2022-12-18T02:00:22;5.60;99.90
35635;DHT22;21757;43.610;1.440;2022-12-18T02:02:48;5.50;99.90
35635;DHT22;21757;43.610;1.440;2022-12-18T02:05:17;5.50;99.90
35635;DHT22;21757;43.610;1.440;2022-12-18T02:11:04;5.50;99.90
35635;DHT22;21757;43.610;1.440;2022-12-18T02:16:19;5.40;99.90
35635;DHT22;21757;43.610;1.440;2022-12-18T02:18:53;5.40;99.90
35635;DHT22;21757;43.610;1.440;2022-12-18T02:24:54;5.30;99.90
35635;DHT22;21757;43.610;1.440;2022-12-18T02:27:24;5.40;99.90
35635;DHT22;21757;43.610;1.440;2022-12-18T02:29:55;5.40;99.90
35635;DHT22;21757;43.610;1.440;2022-12-18T02:32:25;5.30;99.90
35635;DHT22;21757;43.610;1.440;2022-12-18T02:34:54;5.30;99.90
35635;DHT22;21757;43.610;1.440;2022-12-18T02:37:23;5.30;99.90
35635;DHT22;21757;43.610;1.440;2022-12-18T02:39:52;5.30;99.90
35635;DHT22;21757;43.610;1.440;2022-12-18T02:42:20;5.20;99.90
35635;DHT22;21757;43.610;1.440;2022-12-18T02:44:50;5.20;99.90
35635;DHT22;21757;43.610;1.440;2022-12-18T02:47:24;5.20;99.90
35635;DHT22;21757;43.610;1.440;2022-12-18T02:50:59;5.20;99.90
35635;DHT22;21757;43.610;1.440;2022-12-18T02:53:21;5.20;99.90
35635;DHT22;21757;43.610;1.440;2022-12-18T03:04:04;5.10;99.90
35635;DHT22;21757;43.610;1.440;2022-12-18T03:06:37;5.10;99.90
35635;DHT22;21757;43.610;1.440;2022-12-18T03:09:12;5.10;99.90
35635;DHT22;21757;43.610;1.440;2022-12-18T03:11:42;5.10;99.90
35635;DHT22;21757;43.610;1.440;2022-12-18T03:14:30;5.10;99.90
35635;DHT22;21757;43.610;1.440;2022-12-18T03:17:01;5.00;99.90
35635;DHT22;21757;43.610;1.440;2022-12-18T03:19:29;5.00;99.90
35635;DHT22;21757;43.610;1.440;2022-12-18T03:21:58;5.00;99.90
35635;DHT22;21757;43.610;1.440;2022-12-18T03:24:28;5.00;99.90
35635;DHT22;21757;43.610;1.440;2022-12-18T03:27:00;5.00;99.90
35635;DHT22;21757;43.610;1.440;2022-12-18T03:29:46;5.00;99.90
35635;DHT22;21757;43.610;1.440;2022-12-18T03:32:23;4.90;99.90
35635;DHT22;21757;43.610;1.440;2022-12-18T03:34:51;4.90;99.90
35635;DHT22;21757;43.610;1.440;2022-12-18T03:37:17;4.90;99.90
35635;DHT22;21757;43.610;1.440;2022-12-18T03:39:43;4.90;99.90
35635;DHT22;21757;43.610;1.440;2022-12-18T03:45:02;4.90;99.90
35635;DHT22;21757;43.610;1.440;2022-12-18T03:55:51;4.80;99.90
35635;DHT22;21757;43.610;1.440;2022-12-18T03:58:22;4.80;99.90
35635;DHT22;21757;43.610;1.440;2022-12-18T04:00:51;4.80;99.90
35635;DHT22;21757;43.610;1.440;2022-12-18T04:03:18;4.90;99.90
35635;DHT22;21757;43.610;1.440;2022-12-18T04:05:46;4.80;99.90
35635;DHT22;21757;43.610;1.440;2022-12-18T04:08:13;4.80;99.90
35635;DHT22;21757;43.610;1.440;2022-12-18T04:10:40;4.70;99.90
35635;DHT22;21757;43.610;1.440;2022-12-18T04:13:05;4.80;99.90
35635;DHT22;21757;43.610;1.440;2022-12-18T04:15:34;4.70;99.90
35635;DHT22;21757;43.610;1.440;2022-12-18T04:18:00;4.70;99.90
35635;DHT22;21757;43.610;1.440;2022-12-18T04:20:27;4.70;99.90
35635;DHT22;21757;43.610;1.440;2022-12-18T04:22:53;4.60;99.90
35635;DHT22;21757;43.610;1.440;2022-12-18T04:25:19;4.60;99.90
35635;DHT22;21757;43.610;1.440;2022-12-18T04:27:44;4.60;99.90
35635;DHT22;21757;43.610;1.440;2022-12-18T04:30:10;4.60;99.90
35635;DHT22;21757;43.610;1.440;2022-12-18T04:32:36;4.60;99.90
35635;DHT22;21757;43.610;1.440;2022-12-18T04:35:02;4.60;99.90
35635;DHT22;21757;43.610;1.440;2022-12-18T04:37:30;4.60;99.90
35635;DHT22;21757;43.610;1.440;2022-12-18T04:39:57;4.60;99.90
35635;DHT22;21757;43.610;1.440;2022-12-18T04:42:22;4.60;99.90
35635;DHT22;21757;43.610;1.440;2022-12-18T04:44:48;4.60;99.90
35635;DHT22;21757;43.610;1.440;2022-12-18T04:47:14;4.60;99.90
35635;DHT22;21757;43.610;1.440;2022-12-18T04:49:39;4.50;99.90
35635;DHT22;21757;43.610;1.440;2022-12-18T04:52:05;4.50;99.90
35635;DHT22;21757;43.610;1.440;2022-12-18T04:54:31;4.50;99.90
35635;DHT22;21757;43.610;1.440;2022-12-18T04:56:56;4.40;99.90
35635;DHT22;21757;43.610;1.440;2022-12-18T04:59:22;4.40;99.90
35635;DHT22;21757;43.610;1.440;2022-12-18T05:01:48;4.40;99.90
35635;DHT22;21757;43.610;1.440;2022-12-18T05:04:13;4.40;99.90
35635;DHT22;21757;43.610;1.440;2022-12-18T05:06:39;4.40;99.90
35635;DHT22;21757;43.610;1.440;2022-12-18T05:09:05;4.40;99.90
35635;DHT22;21757;43.610;1.440;2022-12-18T05:11:30;4.50;99.90
35635;DHT22;21757;43.610;1.440;2022-12-18T05:13:56;4.50;99.90
35635;DHT22;21757;43.610;1.440;2022-12-18T05:16:22;4.50;99.90
35635;DHT22;21757;43.610;1.440;2022-12-18T05:18:47;4.50;99.90
35635;DHT22;21757;43.610;1.440;2022-12-18T05:21:13;4.50;99.90
35635;DHT22;21757;43.610;1.440;2022-12-18T05:23:38;4.50;99.90
35635;DHT22;21757;43.610;1.440;2022-12-18T05:26:05;4.50;99.90
35635;DHT22;21757;43.610;1.440;2022-12-18T05:28:34;4.40;99.90
35635;DHT22;21757;43.610;1.440;2022-12-18T05:31:03;4.40;99.90
35635;DHT22;21757;43.610;1.440;2022-12-18T05:33:31;4.30;99.90
35635;DHT22;21757;43.610;1.440;2022-12-18T05:35:59;4.20;99.90
35635;DHT22;21757;43.610;1.440;2022-12-18T05:38:29;4.20;99.90
35635;DHT22;21757;43.610;1.440;2022-12-18T05:40:55;4.10;99.90
35635;DHT22;21757;43.610;1.440;2022-12-18T05:43:22;4.00;99.90
35635;DHT22;21757;43.610;1.440;2022-12-18T05:45:48;4.00;99.90
35635;DHT22;21757;43.610;1.440;2022-12-18T05:48:14;3.90;99.90
35635;DHT22;21757;43.610;1.440;2022-12-18T05:50:41;3.90;99.90
35635;DHT22;21757;43.610;1.440;2022-12-18T05:53:08;3.90;99.90
35635;DHT22;21757;43.610;1.440;2022-12-18T05:55:35;3.90;99.90
35635;DHT22;21757;43.610;1.440;2022-12-18T05:58:02;3.80;99.90
35635;DHT22;21757;43.610;1.440;2022-12-18T06:00:29;3.80;99.90
35635;DHT22;21757;43.610;1.440;2022-12-18T06:02:54;3.80;99.90
35635;DHT22;21757;43.610;1.440;2022-12-18T06:05:20;3.80;99.90
35635;DHT22;21757;43.610;1.440;2022-12-18T06:07:46;3.70;99.90
35635;DHT22;21757;43.610;1.440;2022-12-18T06:10:12;3.70;99.90
35635;DHT22;21757;43.610;1.440;2022-12-18T06:12:37;3.70;99.90
35635;DHT22;21757;43.610;1.440;2022-12-18T06:15:04;3.70;99.90
35635;DHT22;21757;43.610;1.440;2022-12-18T06:17:33;3.70;99.90
35635;DHT22;21757;43.610;1.440;2022-12-18T06:19:59;3.70;99.90
35635;DHT22;21757;43.610;1.440;2022-12-18T06:22:25;3.70;99.90
35635;DHT22;21757;43.610;1.440;2022-12-18T06:24:51;3.80;99.90
35635;DHT22;21757;43.610;1.440;2022-12-18T06:27:17;3.80;99.90
35635;DHT22;21757;43.610;1.440;2022-12-18T06:29:43;3.80;99.90
35635;DHT22;21757;43.610;1.440;2022-12-18T06:32:08;3.80;99.90
35635;DHT22;21757;43.610;1.440;2022-12-18T06:34:36;3.70;99.90
35635;DHT22;21757;43.610;1.440;2022-12-18T06:37:02;3.70;99.90
35635;DHT22;21757;43.610;1.440;2022-12-18T06:39:28;3.80;99.90
35635;DHT22;21757;43.610;1.440;2022-12-18T06:41:54;3.80;99.90
35635;DHT22;21757;43.610;1.440;2022-12-18T06:44:20;3.80;99.90
35635;DHT22;21757;43.610;1.440;2022-12-18T06:46:45;3.80;99.90
35635;DHT22;21757;43.610;1.440;2022-12-18T06:49:11;3.70;99.90
35635;DHT22;21757;43.610;1.440;2022-12-18T06:51:37;3.70;99.90
35635;DHT22;21757;43.610;1.440;2022-12-18T06:54:02;3.70;99.90
35635;DHT22;21757;43.610;1.440;2022-12-18T06:56:29;3.70;99.90
35635;DHT22;21757;43.610;1.440;2022-12-18T06:58:54;3.70;99.90
35635;DHT22;21757;43.610;1.440;2022-12-18T07:01:21;3.60;99.90
35635;DHT22;21757;43.610;1.440;2022-12-18T07:03:47;3.60;99.90
35635;DHT22;21757;43.610;1.440;2022-12-18T07:06:17;3.60;99.90
35635;DHT22;21757;43.610;1.440;2022-12-18T07:08:44;3.70;99.90
35635;DHT22;21757;43.610;1.440;2022-12-18T07:11:09;3.70;99.90
35635;DHT22;21757;43.610;1.440;2022-12-18T07:13:35;3.50;99.90
35635;DHT22;21757;43.610;1.440;2022-12-18T07:16:12;3.60;99.90
35635;DHT22;21757;43.610;1.440;2022-12-18T07:18:38;3.70;99.90
35635;DHT22;21757;43.610;1.440;2022-12-18T07:21:05;3.70;99.90
35635;DHT22;21757;43.610;1.440;2022-12-18T07:23:33;3.70;99.90
35635;DHT22;21757;43.610;1.440;2022-12-18T07:26:07;3.70;99.90
35635;DHT22;21757;43.610;1.440;2022-12-18T07:28:35;3.70;99.90
35635;DHT22;21757;43.610;1.440;2022-12-18T07:31:13;3.70;99.90
35635;DHT22;21757;43.610;1.440;2022-12-18T07:33:40;3.70;99.90
35635;DHT22;21757;43.610;1.440;2022-12-18T07:36:07;3.70;99.90
35635;DHT22;21757;43.610;1.440;2022-12-18T07:38:35;3.80;99.90
35635;DHT22;21757;43.610;1.440;2022-12-18T07:41:12;3.80;99.90
35635;DHT22;21757;43.610;1.440;2022-12-18T07:43:39;3.80;99.90
35635;DHT22;21757;43.610;1.440;2022-12-18T07:46:05;3.90;99.90
35635;DHT22;21757;43.610;1.440;2022-12-18T07:48:31;4.00;99.90
35635;DHT22;21757;43.610;1.440;2022-12-18T07:51:00;4.00;99.90
35635;DHT22;21757;43.610;1.440;2022-12-18T07:53:26;4.10;99.90
35635;DHT22;21757;43.610;1.440;2022-12-18T07:56:00;4.10;99.90
35635;DHT22;21757;43.610;1.440;2022-12-18T07:58:26;4.20;99.90
35635;DHT22;21757;43.610;1.440;2022-12-18T08:00:51;4.30;99.90
35635;DHT22;21757;43.610;1.440;2022-12-18T08:03:18;4.40;99.90
35635;DHT22;21757;43.610;1.440;2022-12-18T08:05:44;4.40;99.90
35635;DHT22;21757;43.610;1.440;2022-12-18T08:08:09;4.40;99.90
35635;DHT22;21757;43.610;1.440;2022-12-18T08:10:35;4.40;99.90
35635;DHT22;21757;43.610;1.440;2022-12-18T08:13:01;4.50;99.90
35635;DHT22;21757;43.610;1.440;2022-12-18T08:15:26;4.50;99.90
35635;DHT22;21757;43.610;1.440;2022-12-18T08:17:52;4.60;99.90
35635;DHT22;21757;43.610;1.440;2022-12-18T08:20:21;4.50;99.90
35635;DHT22;21757;43.610;1.440;2022-12-18T08:22:47;4.60;99.90
35635;DHT22;21757;43.610;1.440;2022-12-18T08:25:12;4.60;99.90
35635;DHT22;21757;43.610;1.440;2022-12-18T08:27:38;4.60;99.90
35635;DHT22;21757;43.610;1.440;2022-12-18T08:30:04;4.70;99.90
35635;DHT22;21757;43.610;1.440;2022-12-18T08:32:30;4.70;99.90
35635;DHT22;21757;43.610;1.440;2022-12-18T08:34:56;4.70;99.90
35635;DHT22;21757;43.610;1.440;2022-12-18T08:37:21;4.80;99.90
35635;DHT22;21757;43.610;1.440;2022-12-18T08:39:47;4.80;99.90
35635;DHT22;21757;43.610;1.440;2022-12-18T08:42:13;4.80;99.90
35635;DHT22;21757;43.610;1.440;2022-12-18T08:44:57;4.80;99.90
35635;DHT22;21757;43.610;1.440;2022-12-18T08:47:22;4.80;99.90
35635;DHT22;21757;43.610;1.440;2022-12-18T08:49:48;4.90;99.90
35635;DHT22;21757;43.610;1.440;2022-12-18T08:52:14;4.90;99.90
35635;DHT22;21757;43.610;1.440;2022-12-18T08:54:39;5.00;99.90
35635;DHT22;21757;43.610;1.440;2022-12-18T08:57:05;5.20;99.90
35635;DHT22;21757;43.610;1.440;2022-12-18T08:59:31;5.30;99.90
35635;DHT22;21757;43.610;1.440;2022-12-18T09:01:56;5.50;99.90
35635;DHT22;21757;43.610;1.440;2022-12-18T09:04:22;5.60;99.90
35635;DHT22;21757;43.610;1.440;2022-12-18T09:06:48;5.70;99.90
35635;DHT22;21757;43.610;1.440;2022-12-18T09:09:13;5.80;99.90
35635;DHT22;21757;43.610;1.440;2022-12-18T09:11:39;6.10;99.90
35635;DHT22;21757;43.610;1.440;2022-12-18T09:14:05;6.30;99.90
35635;DHT22;21757;43.610;1.440;2022-12-18T09:16:31;6.30;99.90
35635;DHT22;21757;43.610;1.440;2022-12-18T09:18:57;6.60;99.90
35635;DHT22;21757;43.610;1.440;2022-12-18T09:21:31;6.90;99.90
35635;DHT22;21757;43.610;1.440;2022-12-18T09:23:57;7.30;99.90
35635;DHT22;21757;43.610;1.440;2022-12-18T09:26:24;7.50;99.90
35635;DHT22;21757;43.610;1.440;2022-12-18T09:28:50;7.60;99.90
35635;DHT22;21757;43.610;1.440;2022-12-18T09:31:17;7.70;99.90
35635;DHT22;21757;43.610;1.440;2022-12-18T09:33:44;7.80;99.90
35635;DHT22;21757;43.610;1.440;2022-12-18T09:36:15;7.90;99.90
35635;DHT22;21757;43.610;1.440;2022-12-18T09:38:41;8.00;99.90
35635;DHT22;21757;43.610;1.440;2022-12-18T09:41:39;8.30;99.90
35635;DHT22;21757;43.610;1.440;2022-12-18T09:44:25;8.30;99.90
35635;DHT22;21757;43.610;1.440;2022-12-18T09:47:14;8.50;99.90
35635;DHT22;21757;43.610;1.440;2022-12-18T09:49:44;8.70;99.90
35635;DHT22;21757;43.610;1.440;2022-12-18T10:00:46;9.00;99.90
35635;DHT22;21757;43.610;1.440;2022-12-18T10:03:14;9.10;99.90
35635;DHT22;21757;43.610;1.440;2022-12-18T10:11:01;9.20;99.90
35635;DHT22;21757;43.610;1.440;2022-12-18T10:22:24;9.60;99.90
35635;DHT22;21757;43.610;1.440;2022-12-18T10:25:02;9.60;99.90
35635;DHT22;21757;43.610;1.440;2022-12-18T10:27:30;9.70;99.90
35635;DHT22;21757;43.610;1.440;2022-12-18T10:29:57;9.70;99.90
35635;DHT22;21757;43.610;1.440;2022-12-18T10:32:27;9.70;99.90
35635;DHT22;21757;43.610;1.440;2022-12-18T10:34:55;9.80;99.90
35635;DHT22;21757;43.610;1.440;2022-12-18T10:37:27;9.70;99.90
35635;DHT22;21757;43.610;1.440;2022-12-18T10:40:25;9.80;99.90
35635;DHT22;21757;43.610;1.440;2022-12-18T10:43:14;9.80;99.90
35635;DHT22;21757;43.610;1.440;2022-12-18T10:45:41;9.80;99.90
35635;DHT22;21757;43.610;1.440;2022-12-18T10:48:21;9.80;99.90
35635;DHT22;21757;43.610;1.440;2022-12-18T10:50:49;9.80;99.90
35635;DHT22;21757;43.610;1.440;2022-12-18T10:53:26;9.90;99.90
35635;DHT22;21757;43.610;1.440;2022-12-18T10:55:56;9.90;99.90
35635;DHT22;21757;43.610;1.440;2022-12-18T10:58:30;9.90;99.90
35635;DHT22;21757;43.610;1.440;2022-12-18T11:01:03;10.00;99.90
35635;DHT22;21757;43.610;1.440;2022-12-18T11:06:10;10.10;99.90
35635;DHT22;21757;43.610;1.440;2022-12-18T11:08:36;10.20;99.90
35635;DHT22;21757;43.610;1.440;2022-12-18T11:11:02;10.20;99.90
35635;DHT22;21757;43.610;1.440;2022-12-18T11:13:30;10.20;99.90
35635;DHT22;21757;43.610;1.440;2022-12-18T11:15:57;10.30;99.90
35635;DHT22;21757;43.610;1.440;2022-12-18T11:18:33;10.30;99.90
35635;DHT22;21757;43.610;1.440;2022-12-18T11:21:09;10.30;99.90
35635;DHT22;21757;43.610;1.440;2022-12-18T11:23:36;10.30;99.90
35635;DHT22;21757;43.610;1.440;2022-12-18T11:26:04;10.30;99.90
35635;DHT22;21757;43.610;1.440;2022-12-18T11:28:49;10.30;99.90
35635;DHT22;21757;43.610;1.440;2022-12-18T11:31:22;10.30;99.90
35635;DHT22;21757;43.610;1.440;2022-12-18T11:34:01;10.30;99.90
35635;DHT22;21757;43.610;1.440;2022-12-18T11:36:32;10.30;99.90
35635;DHT22;21757;43.610;1.440;2022-12-18T11:39:02;10.40;99.90
35635;DHT22;21757;43.610;1.440;2022-12-18T11:41:49;10.40;99.90
35635;DHT22;21757;43.610;1.440;2022-12-18T11:44:57;10.50;99.90
35635;DHT22;21757;43.610;1.440;2022-12-18T11:47:39;10.60;99.90
35635;DHT22;21757;43.610;1.440;2022-12-18T11:52:51;10.60;99.90
35635;DHT22;21757;43.610;1.440;2022-12-18T12:00:22;10.70;99.90
35635;DHT22;21757;43.610;1.440;2022-12-18T12:08:33;10.80;99.90
35635;DHT22;21757;43.610;1.440;2022-12-18T12:21:40;10.80;99.90
35635;DHT22;21757;43.610;1.440;2022-12-18T12:29:26;10.90;99.90
35635;DHT22;21757;43.610;1.440;2022-12-18T12:34:59;11.10;99.90
35635;DHT22;21757;43.610;1.440;2022-12-18T12:40:18;11.20;99.90
35635;DHT22;21757;43.610;1.440;2022-12-18T12:42:50;11.20;99.90
35635;DHT22;21757;43.610;1.440;2022-12-18T12:45:37;11.20;99.90
35635;DHT22;21757;43.610;1.440;2022-12-18T12:48:13;11.30;99.90
35635;DHT22;21757;43.610;1.440;2022-12-18T12:50:40;11.30;99.90
35635;DHT22;21757;43.610;1.440;2022-12-18T12:53:08;11.30;99.90
35635;DHT22;21757;43.610;1.440;2022-12-18T12:55:34;11.30;99.90
35635;DHT22;21757;43.610;1.440;2022-12-18T13:03:42;11.40;99.90
35635;DHT22;21757;43.610;1.440;2022-12-18T13:09:05;11.40;99.90
35635;DHT22;21757;43.610;1.440;2022-12-18T13:11:40;11.40;99.90
35635;DHT22;21757;43.610;1.440;2022-12-18T13:14:33;11.40;99.90
35635;DHT22;21757;43.610;1.440;2022-12-18T13:17:24;11.40;99.90
35635;DHT22;21757;43.610;1.440;2022-12-18T13:25:36;11.50;99.90
35635;DHT22;21757;43.610;1.440;2022-12-18T13:28:11;11.50;99.90
35635;DHT22;21757;43.610;1.440;2022-12-18T13:40:55;11.60;99.90
35635;DHT22;21757;43.610;1.440;2022-12-18T13:46:18;11.60;99.90
35635;DHT22;21757;43.610;1.440;2022-12-18T13:49:06;11.60;99.90
35635;DHT22;21757;43.610;1.440;2022-12-18T13:51:44;11.60;99.90
35635;DHT22;21757;43.610;1.440;2022-12-18T13:54:47;11.60;99.90
35635;DHT22;21757;43.610;1.440;2022-12-18T13:57:23;11.60;99.90
35635;DHT22;21757;43.610;1.440;2022-12-18T13:59:50;11.70;99.90
35635;DHT22;21757;43.610;1.440;2022-12-18T14:02:20;11.70;99.90
35635;DHT22;21757;43.610;1.440;2022-12-18T14:04:47;11.70;99.90
35635;DHT22;21757;43.610;1.440;2022-12-18T14:09:43;11.70;99.90
35635;DHT22;21757;43.610;1.440;2022-12-18T14:12:37;11.70;99.90
35635;DHT22;21757;43.610;1.440;2022-12-18T14:15:32;11.70;99.90
35635;DHT22;21757;43.610;1.440;2022-12-18T14:18:02;11.70;99.90
35635;DHT22;21757;43.610;1.440;2022-12-18T14:20:31;11.70;99.90
35635;DHT22;21757;43.610;1.440;2022-12-18T14:22:58;11.70;99.90
35635;DHT22;21757;43.610;1.440;2022-12-18T14:25:29;11.70;99.90
35635;DHT22;21757;43.610;1.440;2022-12-18T14:30:44;11.70;99.90
35635;DHT22;21757;43.610;1.440;2022-12-18T14:33:13;11.70;99.90
35635;DHT22;21757;43.610;1.440;2022-12-18T14:36:00;11.80;99.90
35635;DHT22;21757;43.610;1.440;2022-12-18T14:41:00;11.80;99.90
35635;DHT22;21757;43.610;1.440;2022-12-18T14:43:28;11.70;99.90
35635;DHT22;21757;43.610;1.440;2022-12-18T14:45:54;11.70;99.90
35635;DHT22;21757;43.610;1.440;2022-12-18T14:51:23;11.70;99.90
35635;DHT22;21757;43.610;1.440;2022-12-18T14:54:12;11.70;99.90
35635;DHT22;21757;43.610;1.440;2022-12-18T14:57:06;11.70;99.90
35635;DHT22;21757;43.610;1.440;2022-12-18T14:59:31;11.60;99.90
35635;DHT22;21757;43.610;1.440;2022-12-18T15:01:58;11.60;99.90
35635;DHT22;21757;43.610;1.440;2022-12-18T15:04:31;11.60;99.90
35635;DHT22;21757;43.610;1.440;2022-12-18T15:07:18;11.60;99.90
35635;DHT22;21757;43.610;1.440;2022-12-18T15:10:24;11.50;99.90
35635;DHT22;21757;43.610;1.440;2022-12-18T15:25:57;11.30;99.90
35635;DHT22;21757;43.610;1.440;2022-12-18T15:33:26;11.30;99.90
35635;DHT22;21757;43.610;1.440;2022-12-18T15:36:12;11.20;99.90
35635;DHT22;21757;43.610;1.440;2022-12-18T15:38:38;11.20;99.90
35635;DHT22;21757;43.610;1.440;2022-12-18T15:41:04;11.10;99.90
35635;DHT22;21757;43.610;1.440;2022-12-18T15:43:30;11.00;99.90
35635;DHT22;21757;43.610;1.440;2022-12-18T15:46:13;11.00;99.90
35635;DHT22;21757;43.610;1.440;2022-12-18T15:48:42;10.90;99.90
35635;DHT22;21757;43.610;1.440;2022-12-18T15:51:28;10.80;99.90
35635;DHT22;21757;43.610;1.440;2022-12-18T15:53:59;10.80;99.90
35635;DHT22;21757;43.610;1.440;2022-12-18T15:56:26;10.70;99.90
35635;DHT22;21757;43.610;1.440;2022-12-18T15:59:18;10.60;99.90
35635;DHT22;21757;43.610;1.440;2022-12-18T16:01:46;10.60;99.90
35635;DHT22;21757;43.610;1.440;2022-12-18T16:04:14;10.60;99.90
35635;DHT22;21757;43.610;1.440;2022-12-18T16:06:41;10.60;99.90
35635;DHT22;21757;43.610;1.440;2022-12-18T16:09:07;10.60;99.90
35635;DHT22;21757;43.610;1.440;2022-12-18T16:11:36;10.50;99.90
35635;DHT22;21757;43.610;1.440;2022-12-18T16:14:29;10.50;99.90
35635;DHT22;21757;43.610;1.440;2022-12-18T16:17:03;10.40;99.90
35635;DHT22;21757;43.610;1.440;2022-12-18T16:19:30;10.30;99.90
35635;DHT22;21757;43.610;1.440;2022-12-18T16:21:57;10.20;99.90
35635;DHT22;21757;43.610;1.440;2022-12-18T16:24:26;10.10;99.90
35635;DHT22;21757;43.610;1.440;2022-12-18T16:26:52;10.00;99.90
35635;DHT22;21757;43.610;1.440;2022-12-18T16:29:19;10.10;99.90
35635;DHT22;21757;43.610;1.440;2022-12-18T16:31:50;10.00;99.90
35635;DHT22;21757;43.610;1.440;2022-12-18T16:36:48;9.90;99.90
35635;DHT22;21757;43.610;1.440;2022-12-18T16:39:13;9.90;99.90
35635;DHT22;21757;43.610;1.440;2022-12-18T16:41:39;10.00;99.90
35635;DHT22;21757;43.610;1.440;2022-12-18T16:44:05;10.00;99.90
35635;DHT22;21757;43.610;1.440;2022-12-18T16:46:30;10.00;99.90
35635;DHT22;21757;43.610;1.440;2022-12-18T16:48:58;10.00;99.90
35635;DHT22;21757;43.610;1.440;2022-12-18T16:51:25;10.00;99.90
35635;DHT22;21757;43.610;1.440;2022-12-18T16:53:50;10.00;99.90
35635;DHT22;21757;43.610;1.440;2022-12-18T16:56:16;10.00;99.90
35635;DHT22;21757;43.610;1.440;2022-12-18T16:58:42;10.00;99.90
35635;DHT22;21757;43.610;1.440;2022-12-18T17:01:11;9.90;99.90
35635;DHT22;21757;43.610;1.440;2022-12-18T17:03:37;9.80;99.90
35635;DHT22;21757;43.610;1.440;2022-12-18T17:06:04;9.80;99.90
35635;DHT22;21757;43.610;1.440;2022-12-18T17:08:30;9.80;99.90
35635;DHT22;21757;43.610;1.440;2022-12-18T17:11:03;9.90;99.90
35635;DHT22;21757;43.610;1.440;2022-12-18T17:13:29;9.90;99.90
35635;DHT22;21757;43.610;1.440;2022-12-18T17:15:54;9.80;99.90
35635;DHT22;21757;43.610;1.440;2022-12-18T17:18:20;9.80;99.90
35635;DHT22;21757;43.610;1.440;2022-12-18T17:20:46;10.00;99.90
35635;DHT22;21757;43.610;1.440;2022-12-18T17:23:11;10.10;99.90
35635;DHT22;21757;43.610;1.440;2022-12-18T17:25:39;10.00;99.90
35635;DHT22;21757;43.610;1.440;2022-12-18T17:28:04;9.90;99.90
35635;DHT22;21757;43.610;1.440;2022-12-18T17:30:30;10.10;99.90
35635;DHT22;21757;43.610;1.440;2022-12-18T17:32:56;10.10;99.90
35635;DHT22;21757;43.610;1.440;2022-12-18T17:35:21;10.20;99.90
35635;DHT22;21757;43.610;1.440;2022-12-18T17:37:47;10.20;99.90
35635;DHT22;21757;43.610;1.440;2022-12-18T17:40:13;10.10;99.90
35635;DHT22;21757;43.610;1.440;2022-12-18T17:42:38;10.20;99.90
35635;DHT22;21757;43.610;1.440;2022-12-18T17:45:04;10.20;99.90
35635;DHT22;21757;43.610;1.440;2022-12-18T17:47:32;10.30;99.90
35635;DHT22;21757;43.610;1.440;2022-12-18T17:49:57;10.30;99.90
35635;DHT22;21757;43.610;1.440;2022-12-18T17:52:23;10.30;99.90
35635;DHT22;21757;43.610;1.440;2022-12-18T17:54:49;10.40;99.90
35635;DHT22;21757;43.610;1.440;2022-12-18T17:57:14;10.40;99.90
35635;DHT22;21757;43.610;1.440;2022-12-18T17:59:40;10.40;99.90
35635;DHT22;21757;43.610;1.440;2022-12-18T18:02:08;10.40;99.90
35635;DHT22;21757;43.610;1.440;2022-12-18T18:04:34;10.40;99.90
35635;DHT22;21757;43.610;1.440;2022-12-18T18:06:59;10.40;99.90
35635;DHT22;21757;43.610;1.440;2022-12-18T18:09:25;10.50;99.90
35635;DHT22;21757;43.610;1.440;2022-12-18T18:11:51;10.50;99.90
35635;DHT22;21757;43.610;1.440;2022-12-18T18:14:35;10.40;99.90
35635;DHT22;21757;43.610;1.440;2022-12-18T18:17:01;10.50;99.90
35635;DHT22;21757;43.610;1.440;2022-12-18T18:19:26;10.50;99.90
35635;DHT22;21757;43.610;1.440;2022-12-18T18:21:52;10.50;99.90
35635;DHT22;21757;43.610;1.440;2022-12-18T18:24:21;10.50;99.90
35635;DHT22;21757;43.610;1.440;2022-12-18T18:26:50;10.50;99.90